sensor_id;sensor_type;location;lat;lon;timestamp;P1;durP1;ratioP1;P2;durP2;ratioP2
64487;SDS011;50864;45.050;39.014;2022-09-20T00:01:14;6.37;;;2.78;;
64487;SDS011;50864;45.050;39.014;2022-09-20T00:03:46;5.18;;;2.47;;
64487;SDS011;50864;45.050;39.014;2022-09-20T00:06:15;6.75;;;2.40;;
64487;SDS011;50864;45.050;39.014;2022-09-20T00:08:43;7.32;;;2.67;;
64487;SDS011;50864;45.050;39.014;2022-09-20T00:11:11;7.57;;;2.55;;
64487;SDS011;50864;45.050;39.014;2022-09-20T00:13:40;7.72;;;2.37;;
64487;SDS011;50864;45.050;39.014;2022-09-20T00:16:08;6.30;;;2.40;;
64487;SDS011;50864;45.050;39.014;2022-09-20T00:18:36;5.65;;;2.37;;
64487;SDS011;50864;45.050;39.014;2022-09-20T00:21:03;5.32;;;2.40;;
64487;SDS011;50864;45.050;39.014;2022-09-20T00:23:50;7.97;;;2.85;;
64487;SDS011;50864;45.050;39.014;2022-09-20T00:26:19;4.35;;;2.17;;
64487;SDS011;50864;45.050;39.014;2022-09-20T00:28:45;6.47;;;2.47;;
64487;SDS011;50864;45.050;39.014;2022-09-20T00:31:11;4.85;;;2.42;;
64487;SDS011;50864;45.050;39.014;2022-09-20T00:33:38;6.97;;;2.33;;
64487;SDS011;50864;45.050;39.014;2022-09-20T00:36:23;7.10;;;2.60;;
64487;SDS011;50864;45.050;39.014;2022-09-20T00:38:53;6.40;;;2.50;;
64487;SDS011;50864;45.050;39.014;2022-09-20T00:41:21;5.40;;;2.20;;
64487;SDS011;50864;45.050;39.014;2022-09-20T00:43:47;5.75;;;2.50;;
64487;SDS011;50864;45.050;39.014;2022-09-20T00:48:45;5.87;;;2.80;;
64487;SDS011;50864;45.050;39.014;2022-09-20T00:51:14;9.80;;;3.17;;
64487;SDS011;50864;45.050;39.014;2022-09-20T00:53:43;6.37;;;2.45;;
64487;SDS011;50864;45.050;39.014;2022-09-20T00:59:31;6.43;;;2.92;;
64487;SDS011;50864;45.050;39.014;2022-09-20T01:02:05;6.68;;;2.50;;
64487;SDS011;50864;45.050;39.014;2022-09-20T01:04:44;6.35;;;2.47;;
64487;SDS011;50864;45.050;39.014;2022-09-20T01:07:13;7.60;;;2.25;;
64487;SDS011;50864;45.050;39.014;2022-09-20T01:09:41;4.97;;;2.12;;
64487;SDS011;50864;45.050;39.014;2022-09-20T01:12:12;5.30;;;2.45;;
64487;SDS011;50864;45.050;39.014;2022-09-20T01:14:41;7.80;;;2.70;;
64487;SDS011;50864;45.050;39.014;2022-09-20T01:17:09;4.87;;;2.47;;
64487;SDS011;50864;45.050;39.014;2022-09-20T01:19:39;6.03;;;2.47;;
64487;SDS011;50864;45.050;39.014;2022-09-20T01:22:44;6.87;;;2.53;;
64487;SDS011;50864;45.050;39.014;2022-09-20T01:28:03;7.53;;;2.15;;
64487;SDS011;50864;45.050;39.014;2022-09-20T01:30:38;4.72;;;2.40;;
64487;SDS011;50864;45.050;39.014;2022-09-20T01:35:52;5.05;;;2.30;;
64487;SDS011;50864;45.050;39.014;2022-09-20T01:41:13;10.30;;;2.83;;
64487;SDS011;50864;45.050;39.014;2022-09-20T01:46:29;6.90;;;2.30;;
64487;SDS011;50864;45.050;39.014;2022-09-20T01:58:02;6.43;;;2.45;;
64487;SDS011;50864;45.050;39.014;2022-09-20T02:01:07;4.82;;;2.03;;
64487;SDS011;50864;45.050;39.014;2022-09-20T02:03:52;6.95;;;2.10;;
64487;SDS011;50864;45.050;39.014;2022-09-20T02:12:21;6.05;;;2.50;;
64487;SDS011;50864;45.050;39.014;2022-09-20T02:15:13;4.80;;;2.33;;
64487;SDS011;50864;45.050;39.014;2022-09-20T02:18:15;8.80;;;2.80;;
64487;SDS011;50864;45.050;39.014;2022-09-20T02:23:48;5.78;;;2.87;;
64487;SDS011;50864;45.050;39.014;2022-09-20T02:37:38;8.43;;;3.40;;
64487;SDS011;50864;45.050;39.014;2022-09-20T02:40:22;6.62;;;2.67;;
64487;SDS011;50864;45.050;39.014;2022-09-20T02:42:57;7.25;;;3.30;;
64487;SDS011;50864;45.050;39.014;2022-09-20T02:45:51;5.95;;;2.72;;
64487;SDS011;50864;45.050;39.014;2022-09-20T02:48:33;6.65;;;2.58;;
64487;SDS011;50864;45.050;39.014;2022-09-20T02:51:12;5.97;;;2.67;;
64487;SDS011;50864;45.050;39.014;2022-09-20T02:59:27;3.67;;;2.22;;
64487;SDS011;50864;45.050;39.014;2022-09-20T03:07:57;6.62;;;2.53;;
64487;SDS011;50864;45.050;39.014;2022-09-20T03:10:41;4.65;;;2.00;;
64487;SDS011;50864;45.050;39.014;2022-09-20T03:13:17;4.95;;;2.20;;
64487;SDS011;50864;45.050;39.014;2022-09-20T03:18:59;5.43;;;1.77;;
64487;SDS011;50864;45.050;39.014;2022-09-20T03:24:36;4.57;;;2.50;;
64487;SDS011;50864;45.050;39.014;2022-09-20T03:27:19;4.10;;;1.92;;
64487;SDS011;50864;45.050;39.014;2022-09-20T03:33:05;6.55;;;2.28;;
64487;SDS011;50864;45.050;39.014;2022-09-20T03:53:26;5.10;;;1.80;;
64487;SDS011;50864;45.050;39.014;2022-09-20T04:01:40;7.45;;;2.15;;
64487;SDS011;50864;45.050;39.014;2022-09-20T04:04:21;8.05;;;2.28;;
64487;SDS011;50864;45.050;39.014;2022-09-20T04:12:32;5.57;;;1.92;;
64487;SDS011;50864;45.050;39.014;2022-09-20T04:17:51;4.82;;;2.15;;
64487;SDS011;50864;45.050;39.014;2022-09-20T04:20:22;4.25;;;2.20;;
64487;SDS011;50864;45.050;39.014;2022-09-20T04:22:50;5.78;;;2.25;;
64487;SDS011;50864;45.050;39.014;2022-09-20T04:25:34;5.43;;;2.40;;
64487;SDS011;50864;45.050;39.014;2022-09-20T04:30:36;7.07;;;2.20;;
64487;SDS011;50864;45.050;39.014;2022-09-20T04:38:33;9.63;;;2.53;;
64487;SDS011;50864;45.050;39.014;2022-09-20T04:44:25;9.23;;;2.50;;
64487;SDS011;50864;45.050;39.014;2022-09-20T04:47:07;8.90;;;3.17;;
64487;SDS011;50864;45.050;39.014;2022-09-20T04:58:25;6.47;;;2.20;;
64487;SDS011;50864;45.050;39.014;2022-09-20T05:15:03;9.23;;;2.70;;
64487;SDS011;50864;45.050;39.014;2022-09-20T05:23:01;8.93;;;2.87;;
64487;SDS011;50864;45.050;39.014;2022-09-20T05:25:57;13.57;;;3.62;;
64487;SDS011;50864;45.050;39.014;2022-09-20T05:31:47;10.55;;;3.58;;
64487;SDS011;50864;45.050;39.014;2022-09-20T05:34:23;11.95;;;4.00;;
64487;SDS011;50864;45.050;39.014;2022-09-20T05:37:01;13.70;;;3.62;;
64487;SDS011;50864;45.050;39.014;2022-09-20T05:45:47;9.73;;;3.50;;
64487;SDS011;50864;45.050;39.014;2022-09-20T05:54:06;9.63;;;3.87;;
64487;SDS011;50864;45.050;39.014;2022-09-20T05:56:44;8.98;;;3.17;;
64487;SDS011;50864;45.050;39.014;2022-09-20T05:59:24;8.82;;;2.40;;
64487;SDS011;50864;45.050;39.014;2022-09-20T06:07:48;7.03;;;2.10;;
64487;SDS011;50864;45.050;39.014;2022-09-20T06:10:35;6.03;;;2.00;;
64487;SDS011;50864;45.050;39.014;2022-09-20T06:15:41;3.05;;;1.67;;
64487;SDS011;50864;45.050;39.014;2022-09-20T06:18:57;2.58;;;1.50;;
64487;SDS011;50864;45.050;39.014;2022-09-20T06:23:57;8.18;;;2.28;;
64487;SDS011;50864;45.050;39.014;2022-09-20T06:26:26;10.35;;;2.17;;
64487;SDS011;50864;45.050;39.014;2022-09-20T06:28:59;5.78;;;1.98;;
64487;SDS011;50864;45.050;39.014;2022-09-20T06:31:31;4.55;;;1.83;;
64487;SDS011;50864;45.050;39.014;2022-09-20T06:33:58;8.05;;;2.30;;
64487;SDS011;50864;45.050;39.014;2022-09-20T06:36:29;5.50;;;2.00;;
64487;SDS011;50864;45.050;39.014;2022-09-20T06:42:09;4.95;;;1.80;;
64487;SDS011;50864;45.050;39.014;2022-09-20T06:44:36;6.57;;;1.55;;
64487;SDS011;50864;45.050;39.014;2022-09-20T06:47:06;5.55;;;1.60;;
64487;SDS011;50864;45.050;39.014;2022-09-20T06:49:34;6.00;;;1.87;;
64487;SDS011;50864;45.050;39.014;2022-09-20T06:52:04;4.10;;;1.50;;
64487;SDS011;50864;45.050;39.014;2022-09-20T06:54:31;6.03;;;1.95;;
64487;SDS011;50864;45.050;39.014;2022-09-20T06:56:59;4.40;;;1.62;;
64487;SDS011;50864;45.050;39.014;2022-09-20T06:59:29;7.03;;;2.12;;
64487;SDS011;50864;45.050;39.014;2022-09-20T07:01:56;5.65;;;1.80;;
64487;SDS011;50864;45.050;39.014;2022-09-20T07:04:22;8.48;;;1.80;;
64487;SDS011;50864;45.050;39.014;2022-09-20T07:06:51;6.40;;;1.92;;
64487;SDS011;50864;45.050;39.014;2022-09-20T07:09:24;4.00;;;1.75;;
64487;SDS011;50864;45.050;39.014;2022-09-20T07:11:50;3.47;;;1.80;;
64487;SDS011;50864;45.050;39.014;2022-09-20T07:14:16;6.80;;;1.90;;
64487;SDS011;50864;45.050;39.014;2022-09-20T07:16:43;4.07;;;1.80;;
64487;SDS011;50864;45.050;39.014;2022-09-20T07:19:42;4.68;;;1.50;;
64487;SDS011;50864;45.050;39.014;2022-09-20T07:22:02;9.00;;;1.90;;
64487;SDS011;50864;45.050;39.014;2022-09-20T07:24:28;4.55;;;1.65;;
64487;SDS011;50864;45.050;39.014;2022-09-20T07:27:00;5.43;;;1.85;;
64487;SDS011;50864;45.050;39.014;2022-09-20T07:29:31;3.67;;;1.67;;
64487;SDS011;50864;45.050;39.014;2022-09-20T07:31:59;5.40;;;1.83;;
64487;SDS011;50864;45.050;39.014;2022-09-20T07:34:29;3.75;;;1.80;;
64487;SDS011;50864;45.050;39.014;2022-09-20T19:35:48;21.67;;;7.80;;
64487;SDS011;50864;45.050;39.014;2022-09-20T19:46:52;17.75;;;7.45;;
64487;SDS011;50864;45.050;39.014;2022-09-20T19:52:03;19.60;;;7.55;;
64487;SDS011;50864;45.050;39.014;2022-09-20T19:54:32;14.60;;;7.43;;
64487;SDS011;50864;45.050;39.014;2022-09-20T19:56:58;14.75;;;7.25;;
64487;SDS011;50864;45.050;39.014;2022-09-20T19:59:26;19.20;;;7.70;;
64487;SDS011;50864;45.050;39.014;2022-09-20T20:01:53;16.17;;;7.62;;
64487;SDS011;50864;45.050;39.014;2022-09-20T20:04:19;23.52;;;8.70;;
64487;SDS011;50864;45.050;39.014;2022-09-20T20:09:21;21.25;;;9.52;;
64487;SDS011;50864;45.050;39.014;2022-09-20T20:11:54;19.37;;;8.82;;
64487;SDS011;50864;45.050;39.014;2022-09-20T20:17:47;21.35;;;9.25;;
64487;SDS011;50864;45.050;39.014;2022-09-20T20:20:26;18.60;;;9.30;;
64487;SDS011;50864;45.050;39.014;2022-09-20T20:28:27;21.00;;;9.82;;
64487;SDS011;50864;45.050;39.014;2022-09-20T20:30:54;22.87;;;9.77;;
64487;SDS011;50864;45.050;39.014;2022-09-20T20:33:22;18.17;;;9.38;;
64487;SDS011;50864;45.050;39.014;2022-09-20T20:35:51;23.38;;;10.25;;
64487;SDS011;50864;45.050;39.014;2022-09-20T20:38:18;18.77;;;8.98;;
64487;SDS011;50864;45.050;39.014;2022-09-20T20:40:45;16.80;;;8.40;;
64487;SDS011;50864;45.050;39.014;2022-09-20T20:43:23;19.45;;;9.00;;
64487;SDS011;50864;45.050;39.014;2022-09-20T20:45:50;16.10;;;7.97;;
64487;SDS011;50864;45.050;39.014;2022-09-20T20:48:17;17.15;;;8.35;;
64487;SDS011;50864;45.050;39.014;2022-09-20T20:50:43;16.73;;;8.07;;
64487;SDS011;50864;45.050;39.014;2022-09-20T20:53:09;17.90;;;8.43;;
64487;SDS011;50864;45.050;39.014;2022-09-20T20:55:35;18.67;;;8.95;;
64487;SDS011;50864;45.050;39.014;2022-09-20T20:58:01;29.87;;;16.02;;
64487;SDS011;50864;45.050;39.014;2022-09-20T21:00:27;20.33;;;9.77;;
64487;SDS011;50864;45.050;39.014;2022-09-20T21:02:55;20.15;;;9.30;;
64487;SDS011;50864;45.050;39.014;2022-09-20T21:05:23;22.48;;;9.65;;
64487;SDS011;50864;45.050;39.014;2022-09-20T21:07:49;20.73;;;9.55;;
64487;SDS011;50864;45.050;39.014;2022-09-20T21:10:17;23.55;;;10.13;;
64487;SDS011;50864;45.050;39.014;2022-09-20T21:12:44;17.75;;;8.65;;
64487;SDS011;50864;45.050;39.014;2022-09-20T21:15:10;23.48;;;9.65;;
64487;SDS011;50864;45.050;39.014;2022-09-20T21:17:36;16.15;;;7.70;;
64487;SDS011;50864;45.050;39.014;2022-09-20T21:20:09;16.33;;;7.62;;
64487;SDS011;50864;45.050;39.014;2022-09-20T21:22:39;15.63;;;7.10;;
64487;SDS011;50864;45.050;39.014;2022-09-20T21:25:08;17.27;;;10.57;;
64487;SDS011;50864;45.050;39.014;2022-09-20T21:27:50;12.90;;;6.50;;
64487;SDS011;50864;45.050;39.014;2022-09-20T21:30:18;11.30;;;5.87;;
64487;SDS011;50864;45.050;39.014;2022-09-20T21:32:52;14.65;;;5.18;;
64487;SDS011;50864;45.050;39.014;2022-09-20T21:35:18;9.20;;;4.87;;
64487;SDS011;50864;45.050;39.014;2022-09-20T21:37:45;10.93;;;4.40;;
64487;SDS011;50864;45.050;39.014;2022-09-20T21:40:11;9.60;;;4.85;;
64487;SDS011;50864;45.050;39.014;2022-09-20T21:42:40;10.52;;;4.22;;
64487;SDS011;50864;45.050;39.014;2022-09-20T21:45:27;14.68;;;5.05;;
64487;SDS011;50864;45.050;39.014;2022-09-20T21:47:58;10.60;;;4.80;;
64487;SDS011;50864;45.050;39.014;2022-09-20T21:50:24;11.43;;;4.40;;
64487;SDS011;50864;45.050;39.014;2022-09-20T21:52:50;7.85;;;4.05;;
64487;SDS011;50864;45.050;39.014;2022-09-20T21:55:17;9.30;;;4.28;;
64487;SDS011;50864;45.050;39.014;2022-09-20T21:57:43;12.68;;;4.15;;
64487;SDS011;50864;45.050;39.014;2022-09-20T22:00:09;9.52;;;3.83;;
64487;SDS011;50864;45.050;39.014;2022-09-20T22:02:37;6.35;;;3.62;;
64487;SDS011;50864;45.050;39.014;2022-09-20T22:05:04;8.30;;;3.45;;
64487;SDS011;50864;45.050;39.014;2022-09-20T22:07:30;8.68;;;3.70;;
64487;SDS011;50864;45.050;39.014;2022-09-20T22:09:59;9.60;;;3.60;;
64487;SDS011;50864;45.050;39.014;2022-09-20T22:12:25;10.05;;;3.20;;
64487;SDS011;50864;45.050;39.014;2022-09-20T22:14:51;9.35;;;3.25;;
64487;SDS011;50864;45.050;39.014;2022-09-20T22:17:17;7.70;;;3.30;;
64487;SDS011;50864;45.050;39.014;2022-09-20T22:19:43;10.02;;;3.30;;
64487;SDS011;50864;45.050;39.014;2022-09-20T22:22:10;10.15;;;3.20;;
64487;SDS011;50864;45.050;39.014;2022-09-20T22:24:36;7.07;;;3.03;;
64487;SDS011;50864;45.050;39.014;2022-09-20T22:27:02;7.57;;;2.85;;
64487;SDS011;50864;45.050;39.014;2022-09-20T22:29:28;10.15;;;3.85;;
64487;SDS011;50864;45.050;39.014;2022-09-20T22:31:54;7.78;;;3.30;;
64487;SDS011;50864;45.050;39.014;2022-09-20T22:34:20;9.57;;;3.33;;
64487;SDS011;50864;45.050;39.014;2022-09-20T22:36:47;7.00;;;3.65;;
64487;SDS011;50864;45.050;39.014;2022-09-20T22:39:14;9.90;;;3.30;;
64487;SDS011;50864;45.050;39.014;2022-09-20T22:41:40;9.60;;;3.28;;
64487;SDS011;50864;45.050;39.014;2022-09-20T22:44:07;6.93;;;3.40;;
64487;SDS011;50864;45.050;39.014;2022-09-20T22:46:33;7.07;;;3.15;;
64487;SDS011;50864;45.050;39.014;2022-09-20T22:49:02;6.32;;;3.10;;
64487;SDS011;50864;45.050;39.014;2022-09-20T22:51:30;7.75;;;3.10;;
64487;SDS011;50864;45.050;39.014;2022-09-20T22:53:57;8.57;;;3.47;;
64487;SDS011;50864;45.050;39.014;2022-09-20T22:56:25;9.10;;;3.45;;
64487;SDS011;50864;45.050;39.014;2022-09-20T22:58:54;9.30;;;3.22;;
64487;SDS011;50864;45.050;39.014;2022-09-20T23:01:25;7.40;;;3.00;;
64487;SDS011;50864;45.050;39.014;2022-09-20T23:03:56;7.12;;;3.00;;
64487;SDS011;50864;45.050;39.014;2022-09-20T23:06:26;6.85;;;2.90;;
64487;SDS011;50864;45.050;39.014;2022-09-20T23:08:56;7.70;;;3.20;;
64487;SDS011;50864;45.050;39.014;2022-09-20T23:11:23;6.32;;;3.00;;
64487;SDS011;50864;45.050;39.014;2022-09-20T23:13:54;7.07;;;3.20;;
64487;SDS011;50864;45.050;39.014;2022-09-20T23:16:23;6.75;;;3.15;;
64487;SDS011;50864;45.050;39.014;2022-09-20T23:18:52;8.15;;;3.05;;
64487;SDS011;50864;45.050;39.014;2022-09-20T23:21:19;5.15;;;2.80;;
64487;SDS011;50864;45.050;39.014;2022-09-20T23:23:50;6.15;;;2.83;;
64487;SDS011;50864;45.050;39.014;2022-09-20T23:26:18;6.85;;;3.22;;
64487;SDS011;50864;45.050;39.014;2022-09-20T23:28:45;6.57;;;3.60;;
64487;SDS011;50864;45.050;39.014;2022-09-20T23:31:22;7.47;;;3.95;;
64487;SDS011;50864;45.050;39.014;2022-09-20T23:33:50;9.10;;;3.37;;
64487;SDS011;50864;45.050;39.014;2022-09-20T23:36:29;8.05;;;3.70;;
64487;SDS011;50864;45.050;39.014;2022-09-20T23:38:57;8.60;;;3.58;;
64487;SDS011;50864;45.050;39.014;2022-09-20T23:41:23;8.00;;;3.30;;
64487;SDS011;50864;45.050;39.014;2022-09-20T23:43:51;8.50;;;3.58;;
64487;SDS011;50864;45.050;39.014;2022-09-20T23:46:18;8.38;;;3.58;;
64487;SDS011;50864;45.050;39.014;2022-09-20T23:48:46;7.25;;;3.25;;
64487;SDS011;50864;45.050;39.014;2022-09-20T23:51:13;8.00;;;3.40;;
64487;SDS011;50864;45.050;39.014;2022-09-20T23:53:42;7.20;;;3.62;;
64487;SDS011;50864;45.050;39.014;2022-09-20T23:56:08;10.05;;;3.60;;
64487;SDS011;50864;45.050;39.014;2022-09-20T23:58:36;7.00;;;3.80;;
